Brookfield, New Hampshire
Current Conditions -  °F | °C
As of 5:15 PM on Sunday 25 Jan 2015 (Local Time) from KLCI Reporting Station
Clear Clear  
Wind Chill: 11°   Ceiling: Unl
Heat Index: 19°   Visibility: 10mi
Dew Point:   Wind: 6mph
Humidity: 42%   Direction: 280°W
Pressure: 29.79"   Gusts: NA
Location:  43.6057°N, 71.1496°W
Report Text: KLCI 252215Z AUTO 28005KT 10SM CLR M07/M18 A2979 RMK AO1
Loading
Personal Weather Stations






























Interactive Weather Map New forecast layout! Learn more

10-Day Weather Forecast

Advertisements
Track Severe Weather on mobile